Airfield :







YOU CAN JOIN US ON...

 
LOGIN :

Register | Disclaimer

   EN    FR    IT 

 









Legend :    VFR   Marginal VFR   IFR   Intensive IFR   Very Intensive IFR
Visi :
Ceiling :
>= 8 km
>= 3000ft
5 to 8 km
1000 to 3000 ft
1500m to 5 km
500 to 1000 ft
800 to 1500m
200 to 500 ft
< 800m
< 200 ft
Symbols :   Thunderstorms  Fog  Heavy snow  Heavy precipitations  Wind > 20 kt






- Airport Elevation : 577 ft


KVSF - Hartness State (Springfield)

CURRENT METAR :
  • 010454Z AUTO 00000KT 10SM OVC049 M01/M01 A2996 RMK AO2 SLP152 T10061011 400831017

EXPIRED METARs :
  • 010354Z AUTO 00000KT 10SM OVC036 M01/M02 A2997 RMK AO2 SLP157 T10111017
  • 010326Z AUTO 00000KT 7SM SCT001 BKN040 BKN047 M02/M02 A2997 RMK AO2 T10171022
  • 010314Z AUTO 00000KT 3SM BR BKN001 M02/M03 A2997 RMK AO2 T10171028
  • 010302Z AUTO 00000KT 1/2SM FZFG VV002 M01/M02 A2996 RMK AO2 T10111017

TAF N/A



MET'MAP, your aeronautical weather chart ! - Copyright ORBIFLY December 2007 - Disclaimer

ORBIFLY MET'MAP TEAM :

Programming & Development : Alexandra Zaïnal
Concept & original design : Baudouin d'Aumeries
Assistance for programming : Marc-Olivier Méhu
Technical & hardware support : Manuel Goepfert

Contact : metmap@orbifly.com




SOURCES & CREDITS :

   NOAA